createdAt,value
2022-11-07T00:01:43.193Z,100410.31
2022-11-07T00:07:07.327Z,100417.13
2022-11-07T00:12:35.396Z,100429.81
2022-11-07T00:17:58.892Z,100415.28
2022-11-07T00:23:22.140Z,100426.44
2022-11-07T00:28:46.816Z,100444.91
2022-11-07T00:34:10.056Z,100431.03
2022-11-07T00:39:33.321Z,100436.97
2022-11-07T00:45:00.234Z,100441.28
2022-11-07T00:50:23.428Z,100459.63
2022-11-07T00:55:46.644Z,100455.19
2022-11-07T01:01:12.758Z,100449.00
2022-11-07T01:06:37.785Z,100450.66
2022-11-07T01:12:01.124Z,100455.19
2022-11-07T01:17:25.783Z,100457.84
2022-11-07T01:22:49.002Z,100461.22
2022-11-07T01:28:12.601Z,100473.28
2022-11-07T01:33:38.053Z,100480.09
2022-11-07T01:39:01.313Z,100493.31
2022-11-07T01:44:58.326Z,100507.19
2022-11-07T01:50:25.093Z,100505.88
2022-11-07T01:55:48.271Z,100515.72
2022-11-07T02:01:11.574Z,100508.00
2022-11-07T02:06:42.236Z,100515.22
2022-11-07T02:12:05.817Z,100530.91
2022-11-07T02:17:29.196Z,100536.91
2022-11-07T02:22:56.635Z,100528.88
2022-11-07T02:28:22.911Z,100537.56
2022-11-07T02:33:49.169Z,100517.88
2022-11-07T02:39:12.402Z,100517.53
2022-11-07T02:44:37.092Z,100535.59
2022-11-07T02:50:00.337Z,100548.66
2022-11-07T02:55:23.602Z,100529.56
2022-11-07T03:00:48.269Z,100517.59
2022-11-07T03:06:12.941Z,100512.94
2022-11-07T03:11:36.317Z,100549.19
2022-11-07T03:17:01.148Z,100547.44
2022-11-07T03:22:24.709Z,100562.25
2022-11-07T03:27:48.535Z,100560.59
2022-11-07T03:33:13.705Z,100548.38
2022-11-07T03:38:37.238Z,100560.91
2022-11-07T03:44:00.396Z,100543.50
2022-11-07T03:49:25.080Z,100540.19
2022-11-07T03:54:48.293Z,100542.50
2022-11-07T04:00:12.945Z,100542.34
2022-11-07T04:05:37.482Z,100530.63
2022-11-07T04:11:00.786Z,100549.66
2022-11-07T04:16:41.322Z,100549.56
2022-11-07T04:22:05.873Z,100547.59
2022-11-07T04:27:45.855Z,100550.19
2022-11-07T04:33:09.046Z,100557.94
2022-11-07T04:38:33.640Z,100567.28
2022-11-07T04:43:56.839Z,100583.72
2022-11-07T04:49:20.102Z,100587.16
2022-11-07T04:54:44.671Z,100577.63
2022-11-07T05:00:09.416Z,100574.97
2022-11-07T05:05:32.813Z,100560.91
2022-11-07T05:10:57.568Z,100568.09
2022-11-07T05:16:20.805Z,100562.91
2022-11-07T05:21:44.050Z,100561.16
2022-11-07T05:27:16.277Z,100573.41
2022-11-07T05:32:41.278Z,100581.16
2022-11-07T05:38:05.164Z,100551.75
2022-11-07T05:43:29.873Z,100562.13
2022-11-07T05:48:56.641Z,100561.16
2022-11-07T05:54:24.676Z,100566.34
2022-11-07T05:59:49.298Z,100565.44
2022-11-07T06:05:12.534Z,100571.56
2022-11-07T06:10:36.956Z,100585.47
2022-11-07T06:16:01.651Z,100594.81
2022-11-07T06:21:24.910Z,100589.50
2022-11-07T06:26:48.291Z,100589.47
2022-11-07T06:32:13.137Z,100597.25
2022-11-07T06:37:36.428Z,100597.94
2022-11-07T06:43:11.153Z,100584.97
2022-11-07T06:49:04.023Z,100590.88
2022-11-07T06:54:28.417Z,100607.22
2022-11-07T07:00:00.848Z,100612.53
2022-11-07T07:05:52.263Z,100616.00
2022-11-07T07:11:18.244Z,100612.38
2022-11-07T07:16:46.742Z,100611.81
2022-11-07T07:22:38.950Z,100615.19
2022-11-07T07:28:02.289Z,100621.28
2022-11-07T07:33:28.389Z,100623.69
2022-11-07T07:39:11.162Z,100635.84
2022-11-07T07:44:47.030Z,100669.84
2022-11-07T07:50:13.464Z,100655.56
2022-11-07T07:55:42.865Z,100664.06
2022-11-07T08:01:10.779Z,100676.22
2022-11-07T08:06:41.501Z,100677.75
2022-11-07T08:12:13.916Z,100675.97
2022-11-07T08:17:37.524Z,100690.41
2022-11-07T08:23:02.563Z,100689.63
2022-11-07T08:28:57.257Z,100690.06
2022-11-07T08:34:28.255Z,100703.06
2022-11-07T08:39:53.513Z,100705.44
2022-11-07T08:45:18.617Z,100715.09
2022-11-07T08:50:45.759Z,100717.91
2022-11-07T08:56:12.075Z,100719.78
2022-11-07T09:02:15.182Z,100716.94
2022-11-07T09:07:30.283Z,100715.50
2022-11-07T09:12:57.243Z,100729.22
2022-11-07T09:18:26.639Z,100727.19
2022-11-07T09:23:51.105Z,100739.38
2022-11-07T09:29:20.684Z,100739.16
2022-11-07T09:34:56.005Z,100736.88
2022-11-07T09:40:28.740Z,100725.13
2022-11-07T09:45:59.507Z,100741.50
2022-11-07T09:51:33.226Z,100743.75
2022-11-07T09:56:58.698Z,100744.28
2022-11-07T10:02:25.928Z,100765.28
2022-11-07T10:08:02.526Z,100765.88
2022-11-07T10:13:48.188Z,100768.94
2022-11-07T10:19:21.744Z,100775.13
2022-11-07T10:24:56.867Z,100785.69
2022-11-07T10:30:22.408Z,100778.56
2022-11-07T10:35:47.898Z,100786.38
2022-11-07T10:41:24.662Z,100795.22
2022-11-07T10:46:54.366Z,100800.47
2022-11-07T10:52:21.238Z,100802.97
2022-11-07T10:57:57.085Z,100808.03
2022-11-07T11:03:41.932Z,100803.56
2022-11-07T11:09:17.319Z,100819.94
2022-11-07T11:14:45.058Z,100811.50
2022-11-07T11:20:24.851Z,100818.97
2022-11-07T11:25:49.371Z,100815.91
2022-11-07T11:31:22.303Z,100806.75
2022-11-07T11:36:53.190Z,100801.06
2022-11-07T11:42:26.776Z,100803.63
2022-11-07T11:48:03.419Z,100813.44
2022-11-07T11:53:28.795Z,100804.09
2022-11-07T11:59:06.323Z,100820.44
2022-11-07T12:04:51.236Z,100812.44
2022-11-07T12:10:26.046Z,100816.06
2022-11-07T12:15:57.614Z,100802.28
2022-11-07T12:21:34.648Z,100807.50
2022-11-07T12:27:10.441Z,100804.84
2022-11-07T12:32:42.186Z,100803.91
2022-11-07T12:38:25.661Z,100802.47
2022-11-07T12:43:56.125Z,100809.19
2022-11-07T12:49:46.860Z,100800.47
2022-11-07T12:55:20.985Z,100789.78
2022-11-07T13:00:44.648Z,100789.50
2022-11-07T13:06:16.062Z,100784.44
2022-11-07T13:11:50.904Z,100787.47
2022-11-07T13:17:18.913Z,100785.34
2022-11-07T13:22:42.588Z,100785.19
2022-11-07T13:28:30.550Z,100792.69
2022-11-07T13:33:54.009Z,100787.84
2022-11-07T13:39:17.747Z,100791.47
2022-11-07T13:44:55.408Z,100784.50
2022-11-07T13:50:25.367Z,100784.59
2022-11-07T13:55:55.357Z,100783.63
2022-11-07T14:01:25.291Z,100786.59
2022-11-07T14:06:52.494Z,100791.50
2022-11-07T14:12:21.487Z,100784.28
2022-11-07T14:17:48.314Z,100786.72
2022-11-07T14:23:13.228Z,100788.31
2022-11-07T14:28:38.313Z,100793.38
2022-11-07T14:34:05.940Z,100791.66
2022-11-07T14:39:32.902Z,100793.72
2022-11-07T14:44:57.000Z,100790.53
2022-11-07T14:50:25.035Z,100788.53
2022-11-07T14:55:50.853Z,100784.53
2022-11-07T15:01:25.019Z,100796.22
2022-11-07T15:06:53.074Z,100783.84
2022-11-07T15:12:19.202Z,100788.22
2022-11-07T15:17:48.683Z,100783.63
2022-11-07T15:23:29.978Z,100792.94
2022-11-07T15:28:54.875Z,100792.75
2022-11-07T15:34:39.295Z,100798.81
2022-11-07T15:40:15.163Z,100787.31
2022-11-07T15:45:43.815Z,100800.81
2022-11-07T15:51:12.687Z,100804.06
2022-11-07T15:56:38.000Z,100787.69
2022-11-07T16:02:01.600Z,100772.94
2022-11-07T16:07:25.069Z,100784.97
2022-11-07T16:12:49.821Z,100780.44
2022-11-07T16:24:03.297Z,100776.00
2022-11-07T16:29:28.023Z,100768.22
2022-11-07T16:34:51.252Z,100779.09
2022-11-07T16:40:16.403Z,100786.91
2022-11-07T16:45:46.822Z,100778.34
2022-11-07T16:51:15.246Z,100780.16
2022-11-07T16:56:38.595Z,100778.63
2022-11-07T17:02:07.628Z,100768.50
2022-11-07T17:07:33.726Z,100776.41
2022-11-07T17:12:56.922Z,100760.06
2022-11-07T17:18:22.679Z,100778.03
2022-11-07T17:23:46.087Z,100775.03
2022-11-07T17:29:11.672Z,100787.50
2022-11-07T17:34:36.258Z,100769.59
2022-11-07T17:39:59.400Z,100773.31
2022-11-07T17:45:22.638Z,100788.63
2022-11-07T17:50:47.901Z,100782.75
2022-11-07T17:56:16.701Z,100780.31
2022-11-07T18:01:40.651Z,100781.97
2022-11-07T18:07:05.324Z,100781.13
2022-11-07T18:12:28.552Z,100795.59
2022-11-07T18:17:51.726Z,100798.84
2022-11-07T18:23:16.296Z,100792.91
2022-11-07T18:28:42.212Z,100782.50
2022-11-07T18:34:07.400Z,100773.94
2022-11-07T18:39:32.844Z,100757.03
2022-11-07T18:44:56.075Z,100791.00
2022-11-07T18:50:19.494Z,100789.97
2022-11-07T18:55:44.109Z,100792.44
2022-11-07T19:01:08.916Z,100797.78
2022-11-07T19:06:32.816Z,100802.25
2022-11-07T19:11:58.176Z,100816.09
2022-11-07T19:17:23.851Z,100797.13
2022-11-07T19:22:47.242Z,100812.19
2022-11-07T19:28:11.885Z,100808.22
2022-11-07T19:33:35.230Z,100821.91
2022-11-07T19:38:58.490Z,100812.53
2022-11-07T19:44:43.081Z,100826.75
2022-11-07T19:50:12.097Z,100814.31
2022-11-07T19:55:36.946Z,100821.69
2022-11-07T20:01:01.621Z,100815.81
2022-11-07T20:06:27.745Z,100784.59
2022-11-07T20:11:50.886Z,100813.03
2022-11-07T20:17:15.418Z,100808.81
2022-11-07T20:22:42.552Z,100812.13
2022-11-07T20:28:08.473Z,100819.19
2022-11-07T20:33:33.028Z,100818.28
2022-11-07T20:38:56.602Z,100829.50
2022-11-07T20:44:22.798Z,100829.81
2022-11-07T20:49:47.330Z,100831.03
2022-11-07T20:55:11.759Z,100828.13
2022-11-07T21:00:34.949Z,100822.44
2022-11-07T21:05:59.555Z,100823.53
2022-11-07T21:11:22.975Z,100823.41
2022-11-07T21:16:46.314Z,100825.81
2022-11-07T21:22:10.934Z,100837.09
2022-11-07T21:27:36.221Z,100824.94
2022-11-07T21:32:59.519Z,100834.81
2022-11-07T21:38:25.382Z,100834.34
2022-11-07T21:43:48.831Z,100795.91
2022-11-07T21:49:12.092Z,100831.09
2022-11-07T21:54:36.658Z,100826.47
2022-11-07T21:59:59.857Z,100817.66
2022-11-07T22:05:25.299Z,100815.03
2022-11-07T22:10:50.027Z,100814.75
2022-11-07T22:16:14.709Z,100810.28
2022-11-07T22:21:38.099Z,100809.78
2022-11-07T22:27:02.872Z,100806.13
2022-11-07T22:32:26.266Z,100809.63
2022-11-07T22:37:49.622Z,100807.84
2022-11-07T22:43:14.872Z,100811.78
2022-11-07T22:48:39.220Z,100801.28
2022-11-07T22:54:05.509Z,100805.34
2022-11-07T22:59:30.348Z,100796.97
2022-11-07T23:04:53.648Z,100785.88
2022-11-07T23:10:17.087Z,100751.00
2022-11-07T23:15:41.893Z,100787.19
2022-11-07T23:21:11.534Z,100784.56
2022-11-07T23:26:36.902Z,100779.59
2022-11-07T23:32:01.790Z,100770.03
2022-11-07T23:37:27.237Z,100765.56
2022-11-07T23:42:51.075Z,100766.50
2022-11-07T23:48:35.296Z,100747.72
2022-11-07T23:54:16.158Z,100751.44
2022-11-07T23:59:56.846Z,100746.25
